Time;durP1;ratioP1;P1;durP2;ratioP2;P2;SDS_P1;SDS_P2;PMS_P1;PMS_P2;Temp;Humidity;BMP_temperature;BMP_pressure;BME280_temperature;BME280_humidity;BME280_pressure;Samples;Min_cycle;Max_cycle;Signal;HPM_P1;HPM_P2
2023/08/30 00:01:09;;;;;;;17.23;14.33;;;;;;;25.87;75.80;98312.94;4993633;28;20253;-67
2023/08/30 00:03:36;;;;;;;17.80;14.43;;;;;;;25.79;75.51;98313.75;4993983;28;20241;-68
2023/08/30 00:06:06;;;;;;;17.63;15.67;;;;;;;25.68;75.71;98317.13;4990361;28;20202;-68
2023/08/30 00:08:35;;;;;;;19.53;15.20;;;;;;;25.58;76.26;98310.09;4991127;28;20254;-67
2023/08/30 00:11:02;;;;;;;20.37;13.37;;;;;;;25.60;75.47;98304.34;4974410;28;20195;-67
2023/08/30 00:13:30;;;;;;;14.67;13.13;;;;;;;25.68;74.72;98303.53;4974149;28;20238;-67
2023/08/30 00:15:57;;;;;;;15.90;13.30;;;;;;;25.77;74.35;98304.31;4975152;28;20195;-67
2023/08/30 00:18:24;;;;;;;16.53;14.37;;;;;;;25.80;73.87;98303.69;4993483;28;20230;-67
2023/08/30 00:20:50;;;;;;;15.67;13.83;;;;;;;25.77;74.31;98298.88;4993264;28;20282;-67
2023/08/30 00:23:17;;;;;;;14.77;13.30;;;;;;;25.82;73.24;98306.84;4993421;28;20656;-67
2023/08/30 00:25:45;;;;;;;16.57;14.83;;;;;;;25.79;72.28;98313.75;4993575;28;20205;-67
2023/08/30 00:28:12;;;;;;;15.03;13.33;;;;;;;25.78;72.81;98311.34;4988017;28;20195;-67
2023/08/30 00:30:38;;;;;;;18.90;13.87;;;;;;;25.72;72.79;98312.66;4973692;28;20254;-67
2023/08/30 00:33:05;;;;;;;18.37;13.27;;;;;;;25.63;72.98;98314.59;4984936;28;20582;-68
2023/08/30 00:35:32;;;;;;;17.60;12.63;;;;;;;25.62;72.50;98315.69;4993362;28;20630;-67
2023/08/30 00:37:58;;;;;;;17.70;13.10;;;;;;;25.57;73.01;98310.41;5008741;28;20202;-68
2023/08/30 00:40:26;;;;;;;13.73;11.77;;;;;;;25.56;73.03;98309.63;5012795;28;20270;-68
2023/08/30 00:42:54;;;;;;;13.03;11.63;;;;;;;25.57;72.28;98318.59;5013007;28;20198;-68
2023/08/30 00:45:21;;;;;;;11.87;10.83;;;;;;;25.46;71.80;98320.03;5012385;28;20739;-68
2023/08/30 00:47:47;;;;;;;12.27;11.10;;;;;;;25.34;73.09;98317.13;4997426;28;20732;-68
2023/08/30 00:50:14;;;;;;;13.20;10.03;;;;;;;25.31;72.98;98315.88;4992998;28;20195;-68
2023/08/30 00:52:41;;;;;;;10.87;9.97;;;;;;;25.22;72.51;98319.66;4994084;28;20191;-68
2023/08/30 00:55:09;;;;;;;13.60;9.97;;;;;;;25.10;72.25;98316.81;4993108;28;20329;-67
2023/08/30 00:57:36;;;;;;;11.67;10.43;;;;;;;25.07;72.88;98312.78;4992711;28;20658;-67
2023/08/30 01:00:06;;;;;;;10.53;9.53;;;;;;;25.04;73.09;98311.50;5009075;28;20193;-67
2023/08/30 01:02:34;;;;;;;10.00;9.20;;;;;;;25.07;72.30;98312.00;5012475;28;20201;-67
2023/08/30 01:05:00;;;;;;;11.60;9.47;;;;;;;25.05;72.58;98320.47;5012490;28;20205;-67
2023/08/30 01:07:27;;;;;;;11.57;10.47;;;;;;;24.99;72.08;98322.53;5020299;28;20190;-68
2023/08/30 01:09:54;;;;;;;13.17;9.17;;;;;;;25.06;72.71;98315.84;5032228;28;20284;-68
2023/08/30 01:12:25;;;;;;;11.93;10.07;;;;;;;25.17;72.22;98319.81;5011778;28;20276;-68
2023/08/30 01:14:56;;;;;;;10.07;9.13;;;;;;;25.15;71.72;98325.56;5012343;28;20217;-68
2023/08/30 01:17:25;;;;;;;10.67;9.67;;;;;;;25.20;70.76;98332.78;5011971;28;20654;-67
2023/08/30 01:19:57;;;;;;;9.93;9.13;;;;;;;25.22;71.11;98336.78;5011657;28;20258;-67
2023/08/30 01:22:39;;;;;;;12.33;9.67;;;;;;;25.28;70.59;98330.13;5010435;28;20186;-67
2023/08/30 01:25:18;;;;;;;10.80;9.90;;;;;;;25.31;70.30;98336.84;4992526;28;20282;-68
2023/08/30 01:27:49;;;;;;;9.90;8.90;;;;;;;25.34;70.78;98336.97;4992906;28;20190;-68
2023/08/30 01:30:17;;;;;;;9.73;8.77;;;;;;;25.43;70.21;98331.56;4992569;28;20285;-68
2023/08/30 01:32:46;;;;;;;9.60;8.77;;;;;;;25.41;69.76;98320.19;4992240;28;20226;-68
2023/08/30 01:35:17;;;;;;;9.63;8.70;;;;;;;25.54;69.05;98349.13;4996412;28;20260;-68
2023/08/30 01:37:46;;;;;;;9.67;8.67;;;;;;;25.55;69.31;98350.75;5011998;28;20649;-68
2023/08/30 01:40:14;;;;;;;9.77;8.97;;;;;;;25.40;69.61;98326.75;5011610;28;20665;-68
2023/08/30 01:42:42;;;;;;;9.13;8.23;;;;;;;25.49;69.13;98347.38;5011525;28;20198;-70
2023/08/30 01:45:13;;;;;;;10.33;9.33;;;;;;;25.49;69.54;98344.66;4993412;28;20194;-69
2023/08/30 01:47:41;;;;;;;9.47;8.50;;;;;;;25.50;69.25;98351.69;4992283;28;20612;-68
2023/08/30 01:50:10;;;;;;;10.37;8.30;;;;;;;25.54;68.74;98349.94;4992025;28;20298;-68
2023/08/30 01:52:37;;;;;;;9.40;8.47;;;;;;;25.57;68.72;98353.94;4992239;28;20198;-69
2023/08/30 01:55:05;;;;;;;10.07;9.03;;;;;;;25.57;68.26;98359.38;5008073;28;20218;-68
2023/08/30 01:57:32;;;;;;;8.60;7.93;;;;;;;25.58;68.76;98361.78;5011773;28;20259;-68
2023/08/30 01:59:58;;;;;;;10.83;8.93;;;;;;;25.60;68.45;98358.75;5011439;28;20274;-68
2023/08/30 02:02:29;;;;;;;9.20;8.50;;;;;;;25.57;68.45;98359.38;5004150;28;20616;-68
2023/08/30 02:04:56;;;;;;;12.77;8.83;;;;;;;25.62;68.64;98359.22;4992226;28;20273;-68
2023/08/30 02:07:29;;;;;;;10.20;9.20;;;;;;;25.60;68.34;98358.75;5006440;28;20193;-68
2023/08/30 02:09:59;;;;;;;13.60;8.80;;;;;;;25.63;67.91;98356.16;5031611;28;20186;-68
2023/08/30 02:12:32;;;;;;;8.70;8.10;;;;;;;25.73;67.55;98352.34;5022455;28;20650;-67
2023/08/30 02:15:01;;;;;;;9.30;8.43;;;;;;;25.76;67.23;98351.69;5011328;28;20285;-68
2023/08/30 02:17:31;;;;;;;10.37;8.67;;;;;;;25.77;67.38;98347.84;5011427;28;20202;-67
2023/08/30 02:19:57;;;;;;;8.90;8.13;;;;;;;25.82;67.11;98350.41;5011304;28;20697;-67
2023/08/30 02:22:24;;;;;;;10.17;9.03;;;;;;;25.66;67.59;98352.00;5011126;28;20669;-67
2023/08/30 02:24:51;;;;;;;10.93;7.97;;;;;;;25.50;68.31;98348.97;4998588;28;20674;-68
2023/08/30 02:27:17;;;;;;;9.67;8.80;;;;;;;25.48;68.13;98339.56;4991660;28;20579;-68
2023/08/30 02:29:44;;;;;;;10.23;9.17;;;;;;;25.46;68.28;98337.16;4991602;28;20690;-68
2023/08/30 02:32:11;;;;;;;12.60;9.23;;;;;;;25.47;68.49;98343.41;4995189;28;20222;-68
2023/08/30 02:34:39;;;;;;;8.70;7.97;;;;;;;25.38;69.69;98353.44;4995411;28;20211;-67
2023/08/30 02:37:06;;;;;;;10.70;9.37;;;;;;;25.27;69.98;98349.44;5006330;28;20674;-68
2023/08/30 02:39:32;;;;;;;9.93;9.10;;;;;;;25.12;71.17;98347.16;5015114;28;20194;-68
2023/08/30 02:41:59;;;;;;;11.57;9.03;;;;;;;25.05;71.10;98347.63;5015097;28;20256;-68
2023/08/30 02:44:25;;;;;;;12.73;9.20;;;;;;;24.97;71.09;98334.84;5010933;28;20221;-68
2023/08/30 02:46:52;;;;;;;10.40;9.70;;;;;;;24.87;71.64;98344.06;4995384;28;20252;-68
2023/08/30 02:49:19;;;;;;;10.57;9.60;;;;;;;24.71;71.76;98353.78;4995448;28;20197;-70
2023/08/30 02:51:47;;;;;;;10.97;9.70;;;;;;;24.51;73.28;98346.16;4995113;28;20614;-68
2023/08/30 02:54:14;;;;;;;10.87;8.57;;;;;;;24.52;72.63;98350.50;4995759;28;20222;-68
2023/08/30 02:56:42;;;;;;;10.10;9.10;;;;;;;24.58;72.69;98343.81;5014797;28;20198;-67
2023/08/30 02:59:09;;;;;;;11.93;9.03;;;;;;;24.71;72.51;98348.34;5014486;28;20668;-69
2023/08/30 03:01:35;;;;;;;10.73;9.60;;;;;;;24.80;72.12;98359.25;4999400;28;20195;-67
2023/08/30 03:04:03;;;;;;;10.57;9.63;;;;;;;24.78;72.14;98358.75;4994987;28;20191;-67
2023/08/30 03:06:30;;;;;;;11.77;10.13;;;;;;;24.75;72.57;98360.19;4995149;28;20206;-66
2023/08/30 03:08:58;;;;;;;10.30;9.20;;;;;;;24.71;72.48;98359.22;5034463;28;20197;-67
2023/08/30 03:11:24;;;;;;;10.10;9.30;;;;;;;24.68;72.27;98357.16;5019512;28;20197;-68
2023/08/30 03:13:51;;;;;;;12.70;9.97;;;;;;;24.66;73.02;98366.69;5014142;28;20201;-67
2023/08/30 03:16:18;;;;;;;11.00;9.90;;;;;;;24.72;72.33;98368.97;5014197;28;20284;-67
2023/08/30 03:18:45;;;;;;;10.20;9.40;;;;;;;24.77;72.49;98368.03;5013936;28;20562;-68
2023/08/30 03:21:12;;;;;;;9.47;8.77;;;;;;;24.82;72.12;98376.84;5014401;28;20197;-68
2023/08/30 03:23:39;;;;;;;10.80;10.00;;;;;;;24.88;72.07;98372.06;4998805;28;20190;-66
2023/08/30 03:26:11;;;;;;;13.97;9.23;;;;;;;24.94;71.98;98373.50;4994627;28;20260;-65
2023/08/30 03:28:38;;;;;;;15.83;9.13;;;;;;;25.04;71.57;98376.72;4994522;28;20256;-66
2023/08/30 03:31:13;;;;;;;9.90;8.90;;;;;;;25.06;71.28;98387.28;4994127;28;20199;-66
2023/08/30 03:33:41;;;;;;;10.67;9.33;;;;;;;25.07;71.54;98388.09;4994367;28;20272;-66
2023/08/30 03:36:08;;;;;;;9.33;8.57;;;;;;;25.10;71.62;98382.03;4994972;28;20265;-66
2023/08/30 03:38:34;;;;;;;18.83;9.87;;;;;;;25.14;70.34;98383.78;4994367;28;20202;-67
2023/08/30 03:41:01;;;;;;;14.83;9.07;;;;;;;25.21;70.53;98394.19;4994338;28;20545;-68
2023/08/30 03:43:29;;;;;;;11.00;8.60;;;;;;;25.27;69.88;98392.94;4992650;28;20194;-69
2023/08/30 03:45:56;;;;;;;9.70;8.50;;;;;;;25.19;69.57;98401.88;4994291;28;20198;-68
2023/08/30 03:48:23;;;;;;;12.43;9.17;;;;;;;25.19;69.58;98399.16;4994067;28;20226;-68
2023/08/30 03:50:49;;;;;;;11.23;8.17;;;;;;;25.22;69.60;98395.78;4993869;28;20265;-68
2023/08/30 03:53:16;;;;;;;10.13;9.27;;;;;;;25.23;68.50;98391.97;4993096;28;20194;-67
2023/08/30 03:55:43;;;;;;;16.60;9.63;;;;;;;25.21;68.53;98395.00;4993704;28;20246;-66
2023/08/30 03:58:09;;;;;;;26.27;10.30;;;;;;;25.18;68.92;98400.28;4993758;28;20675;-66
2023/08/30 04:00:39;;;;;;;21.47;9.10;;;;;;;25.08;70.36;98397.84;4993673;28;20667;-67
2023/08/30 04:03:06;;;;;;;18.80;9.90;;;;;;;25.12;70.76;98401.53;4993628;28;20199;-67
2023/08/30 04:05:34;;;;;;;13.23;9.10;;;;;;;25.22;70.46;98407.47;4993392;28;20253;-67
2023/08/30 04:08:03;;;;;;;12.33;8.40;;;;;;;25.30;70.05;98414.88;5018362;28;20740;-67
2023/08/30 04:10:29;;;;;;;10.97;8.57;;;;;;;25.39;70.18;98423.81;5033271;28;20255;-66
2023/08/30 04:12:56;;;;;;;10.40;8.30;;;;;;;25.45;69.34;98429.91;5024012;28;20194;-67
2023/08/30 04:15:23;;;;;;;8.77;7.87;;;;;;;25.60;68.43;98426.75;5012921;28;20245;-67
2023/08/30 04:17:51;;;;;;;21.73;8.70;;;;;;;25.75;67.49;98421.63;5012954;28;20647;-67
2023/08/30 04:20:17;;;;;;;9.23;8.30;;;;;;;25.90;66.83;98423.06;5013190;28;20225;-67
2023/08/30 04:22:44;;;;;;;9.00;7.80;;;;;;;26.04;66.01;98421.00;5008172;28;20195;-67
2023/08/30 04:25:11;;;;;;;11.20;8.07;;;;;;;26.24;65.12;98428.47;4993801;28;20577;-67
2023/08/30 04:27:37;;;;;;;19.37;8.27;;;;;;;26.40;65.31;98435.03;4993618;28;20198;-67
2023/08/30 04:30:05;;;;;;;34.57;10.60;;;;;;;26.56;64.09;98427.94;4993418;28;20198;-67
2023/08/30 04:32:31;;;;;;;23.97;8.93;;;;;;;26.72;64.00;98431.75;4992970;28;20254;-67
2023/08/30 04:34:59;;;;;;;20.27;8.87;;;;;;;26.88;63.31;98435.53;4994423;28;20240;-67
2023/08/30 04:37:26;;;;;;;26.17;9.33;;;;;;;27.13;62.05;98434.59;5012998;28;20657;-66
2023/08/30 04:39:53;;;;;;;16.60;7.80;;;;;;;27.39;61.73;98438.00;5012606;28;20665;-67
2023/08/30 04:42:19;;;;;;;17.10;8.73;;;;;;;27.64;60.77;98434.31;5012522;28;20658;-67
2023/08/30 04:44:46;;;;;;;21.10;9.97;;;;;;;27.96;60.83;98439.06;5012546;28;20202;-68
2023/08/30 04:47:13;;;;;;;18.30;9.30;;;;;;;28.23;59.33;98441.22;5006883;28;20631;-68
2023/08/30 04:49:39;;;;;;;23.40;9.47;;;;;;;28.53;57.72;98439.97;4992891;28;20682;-69
2023/08/30 04:52:07;;;;;;;39.40;9.43;;;;;;;28.64;56.12;98446.59;4992960;28;20713;-68
2023/08/30 04:54:34;;;;;;;22.00;9.50;;;;;;;28.51;56.54;98445.00;4992169;28;20198;-68
2023/08/30 04:57:01;;;;;;;14.50;7.97;;;;;;;28.41;57.38;98442.66;5009222;28;20284;-68
2023/08/30 04:59:27;;;;;;;33.47;9.07;;;;;;;28.47;56.37;98444.06;5012209;28;20194;-68
2023/08/30 05:01:54;;;;;;;13.73;7.93;;;;;;;28.50;55.27;98452.38;5012337;28;20244;-68
2023/08/30 05:04:21;;;;;;;9.10;7.80;;;;;;;28.37;55.22;98458.09;5012222;28;20257;-68
2023/08/30 05:06:47;;;;;;;10.23;7.43;;;;;;;28.11;56.46;98438.44;5004206;28;20191;-67
2023/08/30 05:09:15;;;;;;;12.93;7.40;;;;;;;27.93;57.26;98447.94;5031841;28;20514;-67
2023/08/30 05:11:42;;;;;;;10.90;7.30;;;;;;;27.81;57.71;98439.66;5032225;28;20261;-68
2023/08/30 05:14:12;;;;;;;12.83;7.57;;;;;;;27.79;58.50;98441.91;5004547;28;20194;-67
2023/08/30 05:16:39;;;;;;;19.60;7.97;;;;;;;27.77;57.99;98444.19;5012080;28;20638;-68
2023/08/30 05:19:05;;;;;;;19.90;8.53;;;;;;;27.90;57.82;98448.59;5011745;28;20674;-67
2023/08/30 05:21:32;;;;;;;21.73;8.30;;;;;;;28.29;56.99;98454.34;5024768;28;20661;-68
2023/08/30 05:23:59;;;;;;;8.30;6.80;;;;;;;28.76;54.75;98455.63;5016750;28;20198;-68
2023/08/30 05:26:27;;;;;;;20.30;7.83;;;;;;;29.01;53.71;98464.69;5012206;28;20264;-69
2023/08/30 05:28:53;;;;;;;9.33;6.87;;;;;;;29.30;52.55;98461.72;5012121;28;20245;-68
2023/08/30 05:31:20;;;;;;;8.43;7.13;;;;;;;29.54;51.00;98472.66;5012091;28;20194;-68
2023/08/30 05:33:47;;;;;;;7.80;6.47;;;;;;;29.92;49.96;98484.00;5012232;28;20237;-67
2023/08/30 05:36:13;;;;;;;10.80;6.70;;;;;;;29.99;49.92;98476.00;4998082;28;21294;-67
2023/08/30 05:38:41;;;;;;;7.90;6.47;;;;;;;29.89;49.67;98481.16;4989883;28;20736;-65
2023/08/30 05:41:08;;;;;;;15.83;7.70;;;;;;;29.90;49.41;98480.84;5007654;28;20633;-65
2023/08/30 05:43:36;;;;;;;10.13;6.93;;;;;;;30.22;48.55;98482.59;5010346;28;20335;-65
2023/08/30 05:46:03;;;;;;;7.27;6.73;;;;;;;30.53;48.00;98482.66;5009749;28;20244;-65
2023/08/30 05:48:30;;;;;;;8.23;6.80;;;;;;;30.71;47.13;98491.41;5002974;28;20190;-65
2023/08/30 05:50:57;;;;;;;8.60;7.77;;;;;;;30.53;47.56;98490.09;5008018;28;20674;-65
2023/08/30 05:53:24;;;;;;;6.57;6.13;;;;;;;30.23;48.56;98495.13;5007312;28;20666;-65
2023/08/30 05:55:50;;;;;;;15.17;7.13;;;;;;;30.41;48.13;98499.16;4999093;28;20218;-65
2023/08/30 05:58:18;;;;;;;8.90;7.20;;;;;;;30.69;47.55;98505.47;4989024;28;20198;-64
2023/08/30 06:00:46;;;;;;;10.23;8.23;;;;;;;30.81;47.76;98502.66;4989377;28;20230;-65
2023/08/30 06:03:12;;;;;;;15.07;8.60;;;;;;;30.49;48.04;98494.69;4990780;28;20281;-65
2023/08/30 06:05:39;;;;;;;13.93;7.43;;;;;;;30.03;49.54;98481.56;5005192;28;20248;-64
2023/08/30 06:08:07;;;;;;;17.83;8.60;;;;;;;29.69;51.13;98493.88;5028109;28;20259;-63
2023/08/30 06:10:34;;;;;;;9.23;8.40;;;;;;;29.38;51.23;98492.84;5009652;28;20555;-67
2023/08/30 06:13:02;;;;;;;32.70;9.70;;;;;;;28.89;53.28;98483.78;5013375;28;20565;-67
2023/08/30 06:15:29;;;;;;;9.97;9.03;;;;;;;28.30;54.92;98477.78;5018129;28;20224;-66
2023/08/30 06:17:58;;;;;;;30.17;10.00;;;;;;;28.01;57.13;98479.84;5024415;28;20244;-66
2023/08/30 06:20:25;;;;;;;22.27;9.67;;;;;;;28.00;57.40;98468.09;4995904;28;20198;-66
2023/08/30 06:22:52;;;;;;;15.60;8.93;;;;;;;28.04;58.42;98481.88;4994267;28;20209;-68
2023/08/30 06:25:18;;;;;;;20.83;8.97;;;;;;;28.19;56.89;98486.72;4998116;28;20222;-67
2023/08/30 06:27:58;;;;;;;12.97;8.43;;;;;;;28.59;56.24;98488.59;4997882;28;20198;-75
2023/08/30 06:30:25;;;;;;;15.97;7.90;;;;;;;28.97;55.04;98488.34;5005323;28;20238;-77
2023/08/30 06:32:52;;;;;;;10.43;8.00;;;;;;;29.36;53.16;98492.41;5001050;28;20246;-77
2023/08/30 06:35:20;;;;;;;17.13;7.73;;;;;;;29.80;51.41;98499.69;5005073;28;20276;-78
2023/08/30 06:37:47;;;;;;;13.07;8.37;;;;;;;30.18;50.61;98498.13;5003885;28;20250;-77
2023/08/30 06:40:14;;;;;;;22.17;8.67;;;;;;;30.56;49.79;98501.16;5020123;28;20755;-78
2023/08/30 06:42:41;;;;;;;14.73;8.07;;;;;;;31.00;48.24;98515.66;5007387;28;20198;-77
2023/08/30 06:45:08;;;;;;;10.07;8.03;;;;;;;31.42;47.29;98527.72;5007668;28;20202;-79
2023/08/30 06:47:35;;;;;;;34.10;9.67;;;;;;;31.59;46.41;98517.19;5022762;28;21365;-68
2023/08/30 06:50:03;;;;;;;15.83;7.47;;;;;;;31.78;45.89;98531.00;5018718;28;20521;-65
2023/08/30 06:52:31;;;;;;;9.93;7.50;;;;;;;31.98;45.16;98527.16;5010511;28;20198;-66
2023/08/30 06:54:58;;;;;;;15.57;8.87;;;;;;;32.19;43.95;98535.84;4995312;28;20191;-65
2023/08/30 06:57:24;;;;;;;35.00;8.87;;;;;;;32.36;44.02;98540.94;5002908;28;20199;-65
2023/08/30 06:59:51;;;;;;;13.47;7.13;;;;;;;32.52;43.51;98530.66;4996037;28;20268;-65
2023/08/30 07:02:18;;;;;;;8.00;7.23;;;;;;;32.58;43.27;98537.44;5007708;28;20194;-65
2023/08/30 07:04:44;;;;;;;18.33;8.30;;;;;;;32.75;43.86;98530.72;4999414;28;20256;-65
2023/08/30 07:07:13;;;;;;;11.37;7.37;;;;;;;32.60;43.47;98532.41;5005760;28;20199;-65
2023/08/30 07:09:41;;;;;;;22.37;8.17;;;;;;;32.56;42.84;98527.97;5000177;28;20202;-65
2023/08/30 07:12:08;;;;;;;7.43;6.93;;;;;;;32.53;43.42;98524.00;4994740;28;20290;-65
2023/08/30 07:14:35;;;;;;;8.77;7.50;;;;;;;32.60;42.78;98518.66;5003630;28;20253;-66
2023/08/30 07:17:02;;;;;;;11.97;7.13;;;;;;;32.70;41.60;98519.97;5002723;28;20270;-66
2023/08/30 07:19:28;;;;;;;8.30;7.33;;;;;;;32.62;42.30;98515.53;5006476;28;20248;-66
2023/08/30 07:21:55;;;;;;;9.40;6.75;;;;;;;32.70;42.35;98518.03;5010566;28;20202;-67
2023/08/30 07:24:22;;;;;;;10.43;6.57;;;;;;;32.85;42.13;98524.63;4997711;28;20265;-66
2023/08/30 07:26:50;;;;;;;7.47;6.83;;;;;;;32.96;41.72;98520.13;5002112;28;20338;-64
2023/08/30 07:29:17;;;;;;;27.10;9.10;;;;;;;32.84;41.12;98523.84;4978720;28;20207;-68
2023/08/30 07:31:44;;;;;;;7.68;6.63;;;;;;;33.08;41.59;98512.47;5000744;28;20627;-65
2023/08/30 07:34:11;;;;;;;27.02;7.65;;;;;;;33.08;41.03;98512.47;4999202;28;20269;-66
2023/08/30 07:36:38;;;;;;;12.57;7.40;;;;;;;33.01;40.87;98515.13;4999960;28;20250;-66
2023/08/30 07:39:04;;;;;;;21.13;7.25;;;;;;;32.78;41.16;98511.50;4996204;28;20257;-67
2023/08/30 07:41:33;;;;;;;9.15;7.63;;;;;;;32.72;40.98;98509.44;5001630;28;20252;-67
2023/08/30 07:44:01;;;;;;;247.55;24.15;;;;;;;32.43;42.33;98508.09;5002184;28;20198;-65
2023/08/30 07:46:28;;;;;;;22.13;7.68;;;;;;;32.74;41.69;98507.91;5005964;28;20205;-65
2023/08/30 07:48:55;;;;;;;21.87;7.00;;;;;;;32.91;41.15;98507.44;5018285;28;20261;-65
2023/08/30 07:51:22;;;;;;;15.43;7.82;;;;;;;33.12;40.42;98499.56;5014279;28;20221;-66
2023/08/30 07:53:48;;;;;;;10.82;7.20;;;;;;;33.06;41.27;98498.28;5016641;28;20252;-70
2023/08/30 07:56:15;;;;;;;13.05;7.40;;;;;;;33.28;40.79;98505.72;5017596;28;20301;-69
2023/08/30 07:58:42;;;;;;;24.05;8.38;;;;;;;33.52;40.35;98509.28;5013310;28;20816;-66
2023/08/30 08:01:10;;;;;;;7.30;6.50;;;;;;;33.65;40.15;98502.41;5006564;28;20713;-67
2023/08/30 08:03:37;;;;;;;8.57;6.78;;;;;;;33.77;39.66;98500.25;5006175;28;20252;-65
2023/08/30 08:06:04;;;;;;;10.38;6.50;;;;;;;33.80;39.49;98501.44;5004763;28;20214;-67
2023/08/30 08:08:31;;;;;;;7.88;7.13;;;;;;;33.87;39.19;98501.56;5005946;28;20198;-69
2023/08/30 08:10:57;;;;;;;13.85;7.38;;;;;;;33.89;39.29;98496.47;4999706;28;20194;-67
2023/08/30 08:13:24;;;;;;;10.98;7.38;;;;;;;33.96;39.79;98496.59;5004133;28;20202;-66
2023/08/30 08:15:50;;;;;;;9.10;6.88;;;;;;;33.92;38.71;98493.78;4996730;28;20259;-69
2023/08/30 08:18:18;;;;;;;11.60;7.15;;;;;;;33.78;39.75;98490.00;5004763;28;20674;-66
2023/08/30 08:20:45;;;;;;;10.65;7.53;;;;;;;34.14;38.95;98494.84;4994119;28;20254;-66
2023/08/30 08:23:12;;;;;;;15.55;7.63;;;;;;;34.35;37.60;98486.88;4992032;28;20199;-67
2023/08/30 08:25:38;;;;;;;10.82;7.20;;;;;;;34.36;37.87;98469.13;4999524;28;20253;-67
2023/08/30 08:28:05;;;;;;;18.00;7.93;;;;;;;34.72;38.25;98484.91;5004660;28;20241;-66
2023/08/30 08:30:32;;;;;;;9.75;7.05;;;;;;;34.60;37.45;98487.94;5003651;28;20684;-61
2023/08/30 08:32:59;;;;;;;13.95;7.63;;;;;;;34.69;37.47;98497.50;4997337;28;20232;-61
2023/08/30 08:35:27;;;;;;;10.77;7.35;;;;;;;34.66;37.93;98491.94;4994919;28;20288;-60
2023/08/30 08:37:54;;;;;;;7.90;7.13;;;;;;;34.51;36.85;98479.16;5003082;28;20795;-60
2023/08/30 08:40:21;;;;;;;10.45;7.13;;;;;;;34.28;37.30;98481.22;5002985;28;20206;-63
2023/08/30 08:42:50;;;;;;;9.55;7.07;;;;;;;34.42;38.23;98470.41;5003678;28;20586;-61
2023/08/30 08:45:19;;;;;;;19.65;7.65;;;;;;;34.78;36.93;98475.91;5000706;28;20716;-65
2023/08/30 08:47:46;;;;;;;18.55;7.90;;;;;;;35.09;36.40;98466.34;5000247;28;20226;-60
2023/08/30 08:50:13;;;;;;;15.98;7.60;;;;;;;35.34;35.65;98464.59;5000772;28;20736;-61
2023/08/30 08:52:42;;;;;;;23.98;8.70;;;;;;;34.73;36.85;98469.94;5000779;28;20194;-62
2023/08/30 08:55:09;;;;;;;9.88;7.22;;;;;;;34.31;37.08;98463.97;4991442;28;20622;-67
2023/08/30 08:57:37;;;;;;;27.52;7.47;;;;;;;34.32;37.38;98460.03;5004381;28;20272;-62
2023/08/30 09:00:06;;;;;;;20.35;8.38;;;;;;;34.39;36.99;98460.13;5013006;28;20202;-62
2023/08/30 09:02:33;;;;;;;11.80;7.10;;;;;;;34.64;36.81;98455.66;5001545;28;20234;-64
2023/08/30 09:05:01;;;;;;;20.80;7.57;;;;;;;34.67;36.80;98450.19;4996097;28;20199;-66
2023/08/30 09:07:29;;;;;;;8.65;6.43;;;;;;;34.78;36.24;98447.53;5009788;28;20213;-62
2023/08/30 09:09:58;;;;;;;7.43;6.40;;;;;;;35.06;35.85;98461.59;4996153;28;20194;-60
2023/08/30 09:12:24;;;;;;;12.57;6.97;;;;;;;34.75;36.19;98448.28;4997942;28;20600;-60
2023/08/30 09:14:56;;;;;;;17.10;7.15;;;;;;;34.93;35.71;98450.06;4990977;28;20210;-60
2023/08/30 09:17:22;;;;;;;9.80;7.03;;;;;;;34.92;35.31;98445.72;4998753;28;20297;-60
2023/08/30 09:19:50;;;;;;;27.77;8.10;;;;;;;34.86;35.42;98444.47;4991114;28;20245;-60
2023/08/30 09:22:17;;;;;;;15.40;7.10;;;;;;;35.06;35.46;98458.81;4991631;28;20194;-60
2023/08/30 09:24:43;;;;;;;12.57;6.85;;;;;;;35.23;34.02;98450.69;4989384;28;20261;-60
2023/08/30 09:27:11;;;;;;;7.22;6.45;;;;;;;35.44;33.87;98444.56;4997840;28;20202;-63
2023/08/30 09:29:38;;;;;;;7.70;6.70;;;;;;;35.35;34.43;98442.13;4989609;28;20199;-61
2023/08/30 09:32:05;;;;;;;8.70;6.78;;;;;;;35.26;34.09;98432.56;4990707;28;20230;-60
2023/08/30 09:34:32;;;;;;;43.42;9.35;;;;;;;35.36;35.06;98426.34;4991077;28;20198;-61
2023/08/30 09:37:01;;;;;;;7.35;6.72;;;;;;;35.48;34.14;98418.53;4997510;28;20268;-62
2023/08/30 09:39:28;;;;;;;7.03;6.43;;;;;;;35.58;34.83;98422.53;4991907;28;20607;-62
2023/08/30 09:41:55;;;;;;;7.63;6.88;;;;;;;35.47;33.87;98421.69;5011240;28;20193;-59
2023/08/30 09:44:24;;;;;;;14.02;8.10;;;;;;;35.49;32.80;98424.88;5011398;28;20693;-59
2023/08/30 09:46:52;;;;;;;7.47;6.78;;;;;;;35.39;33.71;98420.06;5012068;28;20220;-59
2023/08/30 09:49:20;;;;;;;11.00;7.38;;;;;;;34.46;36.07;98405.03;5011305;28;20731;-60
2023/08/30 09:51:48;;;;;;;21.77;8.32;;;;;;;33.98;36.61;98401.31;5011197;28;20281;-60
2023/08/30 09:54:17;;;;;;;7.25;6.65;;;;;;;34.02;35.93;98406.88;5011527;28;20198;-62
2023/08/30 09:56:44;;;;;;;7.57;6.70;;;;;;;34.39;36.18;98393.91;5011691;28;20603;-59
2023/08/30 09:59:12;;;;;;;7.25;6.72;;;;;;;34.46;35.55;98413.31;5011595;28;20301;-60
2023/08/30 10:01:40;;;;;;;9.98;7.00;;;;;;;34.71;35.55;98406.06;5011320;28;20236;-60
2023/08/30 10:04:09;;;;;;;8.13;7.55;;;;;;;34.94;35.76;98413.00;5011958;28;20226;-60
2023/08/30 10:06:36;;;;;;;8.43;7.47;;;;;;;35.06;34.94;98409.13;5012535;28;20290;-59
2023/08/30 10:09:05;;;;;;;8.57;7.57;;;;;;;35.28;34.85;98397.09;5030905;28;20248;-59
2023/08/30 10:11:35;;;;;;;10.43;6.60;;;;;;;35.40;34.55;98394.03;5011921;28;20630;-59
2023/08/30 10:14:03;;;;;;;9.32;7.35;;;;;;;35.49;33.83;98391.72;5011589;28;20187;-59
2023/08/30 10:16:36;;;;;;;7.38;6.80;;;;;;;35.59;34.13;98402.81;5007512;28;20277;-59
2023/08/30 10:19:08;;;;;;;15.63;7.70;;;;;;;35.57;32.92;98399.66;5009571;28;20190;-60
2023/08/30 10:21:37;;;;;;;11.05;7.85;;;;;;;35.17;34.29;98382.41;5009116;28;20260;-59
2023/08/30 10:24:08;;;;;;;8.10;7.43;;;;;;;35.34;32.77;98390.84;5013925;28;20220;-62
2023/08/30 10:26:36;;;;;;;10.43;7.93;;;;;;;35.32;32.90;98384.09;5014385;28;20240;-59
2023/08/30 10:29:04;;;;;;;7.30;6.45;;;;;;;35.12;33.58;98382.75;5007088;28;20201;-58
2023/08/30 10:31:31;;;;;;;21.83;8.30;;;;;;;35.28;34.57;98381.31;5009347;28;20267;-59
2023/08/30 10:33:57;;;;;;;11.05;7.13;;;;;;;35.39;33.35;98389.69;5007597;28;20886;-59
2023/08/30 10:36:27;;;;;;;7.97;7.30;;;;;;;35.36;33.39;98388.47;4990527;28;20572;-58
2023/08/30 10:38:55;;;;;;;7.10;6.55;;;;;;;35.45;33.47;98379.84;5006916;28;20574;-59
2023/08/30 10:41:23;;;;;;;7.97;7.13;;;;;;;35.50;32.08;98379.47;5005393;28;20260;-58
2023/08/30 10:43:52;;;;;;;7.65;6.63;;;;;;;35.46;32.09;98375.88;5007225;28;20206;-59
2023/08/30 10:46:30;;;;;;;7.97;7.13;;;;;;;35.50;31.05;98377.50;4988397;28;20312;-58
2023/08/30 10:48:57;;;;;;;7.60;6.90;;;;;;;35.57;30.91;98376.75;5006249;28;20186;-58
2023/08/30 10:51:38;;;;;;;8.00;7.40;;;;;;;35.61;31.67;98370.06;5007832;28;20694;-59
2023/08/30 10:54:12;;;;;;;14.70;7.72;;;;;;;35.23;31.63;98369.81;5010697;28;20244;-58
2023/08/30 10:56:48;;;;;;;8.45;7.35;;;;;;;34.98;32.38;98357.81;5012456;28;20214;-59
2023/08/30 10:59:19;;;;;;;8.38;6.85;;;;;;;34.70;33.93;98357.56;5010772;28;20212;-58
2023/08/30 11:01:46;;;;;;;16.80;8.80;;;;;;;34.43;34.05;98351.41;5011128;28;20570;-63
2023/08/30 11:04:15;;;;;;;13.43;7.60;;;;;;;34.65;34.64;98358.69;5000354;28;20599;-58
2023/08/30 11:06:44;;;;;;;11.65;8.68;;;;;;;34.63;32.70;98371.28;5005540;28;20698;-58
2023/08/30 11:09:13;;;;;;;9.38;8.35;;;;;;;34.63;32.55;98365.78;5006412;28;20228;-59
2023/08/30 11:11:39;;;;;;;9.40;8.45;;;;;;;34.66;32.75;98359.50;5012911;28;20673;-62
2023/08/30 11:14:07;;;;;;;10.15;9.35;;;;;;;34.66;33.00;98356.75;5012754;28;20256;-59
2023/08/30 11:16:34;;;;;;;19.08;8.75;;;;;;;34.80;33.00;98354.91;5013427;28;20240;-58
2023/08/30 11:19:02;;;;;;;17.77;8.70;;;;;;;34.58;33.48;98325.53;5017576;28;20193;-59
2023/08/30 11:21:30;;;;;;;10.18;8.98;;;;;;;34.70;33.39;98349.28;5011236;28;20209;-60
2023/08/30 11:24:00;;;;;;;33.38;10.55;;;;;;;34.67;33.78;98344.53;5013675;28;21670;-60
2023/08/30 11:26:27;;;;;;;14.30;8.45;;;;;;;34.61;34.06;98346.03;5009423;28;20213;-60
2023/08/30 11:28:54;;;;;;;17.33;9.40;;;;;;;34.62;33.77;98339.38;5009819;28;20260;-60